Time;durP1;ratioP1;P1;durP2;ratioP2;P2;SDS_P1;SDS_P2;PMS_P1;PMS_P2;Temp;Humidity;BMP_temperature;BMP_pressure;BME280_temperature;BME280_humidity;BME280_pressure;Samples;Min_cycle;Max_cycle;Signal;HPM_P1;HPM_P2
2023/05/29 00:00:28;;;;;;;8.27;7.45;;;;;;;;;;10102326;28;20078;-63
2023/05/29 00:05:27;;;;;;;11.73;9.45;;;;;;;;;;10104985;28;20082;-62
2023/05/29 00:10:27;;;;;;;17.63;12.45;;;;;;;;;;10102074;28;20096;-63
2023/05/29 00:15:27;;;;;;;12.73;11.43;;;;;;;;;;10102071;28;20579;-64
2023/05/29 00:20:28;;;;;;;10.95;9.85;;;;;;;;;;10102782;28;20517;-61
2023/05/29 00:25:26;;;;;;;10.93;9.45;;;;;;;;;;10100501;28;20105;-62
2023/05/29 00:30:24;;;;;;;10.48;9.02;;;;;;;;;;10101104;28;20078;-62
2023/05/29 00:35:24;;;;;;;10.68;9.68;;;;;;;;;;10098554;28;20077;-62
2023/05/29 00:40:22;;;;;;;15.00;9.10;;;;;;;;;;10096325;28;20074;-62
2023/05/29 00:45:21;;;;;;;10.35;9.43;;;;;;;;;;10096028;28;20066;-62
2023/05/29 00:50:23;;;;;;;12.63;9.52;;;;;;;;;;10094321;28;20075;-62
2023/05/29 00:55:23;;;;;;;10.40;9.05;;;;;;;;;;10094718;28;20078;-62
2023/05/29 01:00:22;;;;;;;10.80;9.60;;;;;;;;;;10096138;28;20078;-62
2023/05/29 01:05:21;;;;;;;12.55;9.82;;;;;;;;;;10103141;28;20067;-62
2023/05/29 01:10:19;;;;;;;11.40;10.15;;;;;;;;;;10103901;28;20089;-62
2023/05/29 01:15:22;;;;;;;13.32;11.18;;;;;;;;;;10095729;28;20077;-62
2023/05/29 01:20:28;;;;;;;13.63;10.95;;;;;;;;;;10102160;28;20329;-62
2023/05/29 01:25:33;;;;;;;12.47;11.17;;;;;;;;;;10098985;28;20130;-62
2023/05/29 01:30:34;;;;;;;11.95;10.50;;;;;;;;;;10099823;28;20055;-62
2023/05/29 01:35:32;;;;;;;11.05;9.32;;;;;;;;;;10100667;28;20066;-62
2023/05/29 01:40:30;;;;;;;17.75;9.63;;;;;;;;;;10097943;28;20082;-63
2023/05/29 01:45:29;;;;;;;9.85;8.70;;;;;;;;;;10094593;28;20468;-63
2023/05/29 01:50:29;;;;;;;16.27;9.55;;;;;;;;;;10096159;28;20086;-62
2023/05/29 01:55:27;;;;;;;12.85;8.02;;;;;;;;;;10094099;28;20120;-63
2023/05/29 02:00:30;;;;;;;9.85;8.23;;;;;;;;;;10092100;28;20071;-63
2023/05/29 02:05:30;;;;;;;8.88;8.07;;;;;;;;;;10098889;28;20070;-63
2023/05/29 02:10:29;;;;;;;9.50;7.68;;;;;;;;;;10098234;28;20507;-63
2023/05/29 02:15:29;;;;;;;16.40;8.05;;;;;;;;;;10093372;28;20082;-63
2023/05/29 02:20:29;;;;;;;9.75;7.45;;;;;;;;;;10095477;28;20085;-63
2023/05/29 02:25:29;;;;;;;8.77;8.00;;;;;;;;;;10093800;28;20086;-63
2023/05/29 02:30:28;;;;;;;9.27;7.53;;;;;;;;;;10095094;28;20533;-63
2023/05/29 02:35:26;;;;;;;8.77;7.88;;;;;;;;;;10100516;28;20094;-63
2023/05/29 02:40:26;;;;;;;7.97;7.22;;;;;;;;;;10095755;28;20472;-63
2023/05/29 02:45:24;;;;;;;7.90;7.00;;;;;;;;;;10096261;28;20078;-62
2023/05/29 02:50:24;;;;;;;9.00;6.70;;;;;;;;;;10093333;28;20091;-62
2023/05/29 02:55:22;;;;;;;10.77;7.35;;;;;;;;;;10096441;28;20412;-63
2023/05/29 03:00:22;;;;;;;11.13;8.77;;;;;;;;;;10097257;28;20078;-63
2023/05/29 03:05:20;;;;;;;20.67;9.60;;;;;;;;;;10098415;28;20074;-63
2023/05/29 03:10:19;;;;;;;12.13;9.55;;;;;;;;;;10099550;28;20098;-63
2023/05/29 03:15:19;;;;;;;10.40;9.15;;;;;;;;;;10095761;28;20066;-63
2023/05/29 03:20:19;;;;;;;13.65;9.00;;;;;;;;;;10092916;28;20070;-63
2023/05/29 03:25:20;;;;;;;11.30;8.73;;;;;;;;;;10093605;28;20089;-63
2023/05/29 03:30:20;;;;;;;10.70;9.55;;;;;;;;;;10094981;28;20078;-63
2023/05/29 03:35:21;;;;;;;9.90;8.93;;;;;;;;;;10100010;28;20093;-63
2023/05/29 03:40:19;;;;;;;9.23;8.27;;;;;;;;;;10104108;28;20079;-62
2023/05/29 03:45:18;;;;;;;10.55;9.10;;;;;;;;;;10098901;28;20074;-62
2023/05/29 03:50:16;;;;;;;10.65;9.70;;;;;;;;;;10105039;28;20331;-63
2023/05/29 03:55:17;;;;;;;9.57;8.68;;;;;;;;;;10096130;28;20085;-62
2023/05/29 04:00:16;;;;;;;11.90;9.60;;;;;;;;;;10099488;28;20499;-62
2023/05/29 04:05:18;;;;;;;10.57;8.68;;;;;;;;;;10099445;28;20089;-62
2023/05/29 04:10:18;;;;;;;11.25;9.52;;;;;;;;;;10103846;28;20074;-62
2023/05/29 04:15:16;;;;;;;14.75;10.38;;;;;;;;;;10102818;28;20058;-63
2023/05/29 04:20:15;;;;;;;11.70;10.15;;;;;;;;;;10100871;28;20234;-63
2023/05/29 04:25:13;;;;;;;13.73;10.35;;;;;;;;;;10115569;28;20506;-63
2023/05/29 04:30:13;;;;;;;11.93;10.77;;;;;;;;;;10100805;28;20105;-63
2023/05/29 04:35:15;;;;;;;11.57;10.33;;;;;;;;;;10097121;28;20082;-63
2023/05/29 04:40:24;;;;;;;14.75;11.38;;;;;;;;;;10101347;28;20349;-62
2023/05/29 04:45:25;;;;;;;13.02;11.82;;;;;;;;;;10115835;28;20067;-62
2023/05/29 04:50:24;;;;;;;16.45;13.20;;;;;;;;;;10104354;28;20082;-63
2023/05/29 04:55:24;;;;;;;17.35;12.40;;;;;;;;;;10096914;28;20073;-63
2023/05/29 05:00:25;;;;;;;14.88;12.80;;;;;;;;;;10116997;28;20485;-62
2023/05/29 05:05:23;;;;;;;14.65;12.15;;;;;;;;;;10097192;28;20074;-62
2023/05/29 05:10:27;;;;;;;13.32;11.30;;;;;;;;;;10090741;28;20097;-63
2023/05/29 05:15:27;;;;;;;16.83;14.05;;;;;;;;;;10097799;28;20078;-63
2023/05/29 05:20:26;;;;;;;16.73;13.40;;;;;;;;;;10102623;28;20210;-62
2023/05/29 05:25:28;;;;;;;16.23;11.55;;;;;;;;;;10116590;28;20082;-63
2023/05/29 05:30:28;;;;;;;14.73;12.15;;;;;;;;;;10097609;28;20092;-62
2023/05/29 05:35:27;;;;;;;14.88;11.43;;;;;;;;;;10098891;28;20082;-62
2023/05/29 05:40:26;;;;;;;17.45;11.88;;;;;;;;;;10096519;28;20113;-61
2023/05/29 05:45:32;;;;;;;19.40;15.00;;;;;;;;;;10096207;28;20484;-64
2023/05/29 05:50:30;;;;;;;21.40;15.57;;;;;;;;;;10098468;28;20067;-61
2023/05/29 05:55:29;;;;;;;17.38;12.40;;;;;;;;;;10095656;28;20085;-63
2023/05/29 06:00:27;;;;;;;17.80;12.05;;;;;;;;;;10103333;28;20086;-61
2023/05/29 06:05:29;;;;;;;14.13;12.65;;;;;;;;;;10097006;28;20074;-62
2023/05/29 06:10:27;;;;;;;17.10;12.85;;;;;;;;;;10093577;28;20089;-62
2023/05/29 06:15:26;;;;;;;13.68;12.27;;;;;;;;;;10099959;28;20677;-62
2023/05/29 06:20:25;;;;;;;14.65;11.35;;;;;;;;;;10119871;28;20540;-62
2023/05/29 06:25:31;;;;;;;21.27;11.43;;;;;;;;;;10093198;28;20123;-62
2023/05/29 06:30:30;;;;;;;15.02;11.20;;;;;;;;;;10090590;28;20070;-62
2023/05/29 06:35:31;;;;;;;19.30;11.38;;;;;;;;;;10104689;28;20078;-62
2023/05/29 06:40:31;;;;;;;11.23;10.02;;;;;;;;;;10087558;28;20086;-62
2023/05/29 06:45:29;;;;;;;12.40;10.40;;;;;;;;;;10092454;28;20073;-61
2023/05/29 06:50:27;;;;;;;13.32;10.55;;;;;;;;;;10108553;28;20481;-63
2023/05/29 06:55:31;;;;;;;11.93;9.60;;;;;;;;;;10093794;28;20528;-62
2023/05/29 07:00:30;;;;;;;10.73;9.63;;;;;;;;;;10094840;28;20079;-62
2023/05/29 07:05:51;;;;;;;13.43;10.55;;;;;;;;;;10090844;28;20089;-62
2023/05/29 07:10:52;;;;;;;16.10;10.52;;;;;;;;;;10102004;28;20078;-62
2023/05/29 07:15:51;;;;;;;18.15;10.43;;;;;;;;;;10114581;28;20085;-63
2023/05/29 07:20:56;;;;;;;18.00;13.68;;;;;;;;;;10100818;28;20097;-62
2023/05/29 07:25:59;;;;;;;18.05;10.75;;;;;;;;;;10100691;28;20078;-62
2023/05/29 07:31:00;;;;;;;13.70;9.80;;;;;;;;;;10098243;28;20496;-62
2023/05/29 07:35:59;;;;;;;23.30;20.80;;;;;;;;;;10096301;28;20046;-62
2023/05/29 07:40:58;;;;;;;16.63;9.77;;;;;;;;;;10101801;28;20552;-62
2023/05/29 07:46:06;;;;;;;14.73;8.95;;;;;;;;;;10107250;28;20081;-62
2023/05/29 07:51:10;;;;;;;17.42;10.18;;;;;;;;;;10096599;28;20074;-62
2023/05/29 07:56:16;;;;;;;11.95;10.10;;;;;;;;;;10097551;28;20086;-62
2023/05/29 08:01:15;;;;;;;13.43;9.80;;;;;;;;;;10097002;28;20078;-62
2023/05/29 08:06:14;;;;;;;13.13;10.57;;;;;;;;;;10098257;28;20043;-62
2023/05/29 08:11:14;;;;;;;14.98;11.18;;;;;;;;;;10112228;28;20093;-62
2023/05/29 08:16:15;;;;;;;14.27;12.25;;;;;;;;;;10115111;28;20086;-62
2023/05/29 08:21:14;;;;;;;13.52;10.90;;;;;;;;;;10099753;28;21194;-62
2023/05/29 08:26:13;;;;;;;14.38;11.95;;;;;;;;;;10100283;28;20104;-62
2023/05/29 08:31:11;;;;;;;19.98;12.77;;;;;;;;;;10098931;28;20070;-62
2023/05/29 08:36:11;;;;;;;17.63;12.68;;;;;;;;;;10100151;28;20074;-62
2023/05/29 08:41:09;;;;;;;17.65;11.07;;;;;;;;;;10099473;28;20086;-62
2023/05/29 08:46:08;;;;;;;16.92;11.45;;;;;;;;;;10099693;28;20066;-62
2023/05/29 08:51:08;;;;;;;12.02;10.52;;;;;;;;;;10100867;28;20868;-62
2023/05/29 08:56:08;;;;;;;13.27;10.00;;;;;;;;;;10098988;28;20505;-62
2023/05/29 09:01:15;;;;;;;13.40;8.80;;;;;;;;;;10098240;28;20071;-63
2023/05/29 09:06:13;;;;;;;16.88;9.23;;;;;;;;;;10098915;28;20059;-63
2023/05/29 09:11:13;;;;;;;8.05;7.10;;;;;;;;;;10097962;28;20085;-64
2023/05/29 09:16:11;;;;;;;11.70;8.55;;;;;;;;;;10098359;28;20086;-63
2023/05/29 09:21:10;;;;;;;8.40;7.53;;;;;;;;;;10098192;28;20086;-63
2023/05/29 09:26:08;;;;;;;8.43;6.95;;;;;;;;;;10097889;28;20094;-64
2023/05/29 09:31:16;;;;;;;10.27;7.10;;;;;;;;;;10096628;28;20074;-63
2023/05/29 09:36:20;;;;;;;7.55;5.22;;;;;;;;;;10095928;28;20082;-63
2023/05/29 09:41:23;;;;;;;8.35;6.18;;;;;;;;;;10096423;28;20074;-63
2023/05/29 09:46:23;;;;;;;10.07;6.28;;;;;;;;;;10096472;28;20524;-64
2023/05/29 09:51:22;;;;;;;9.52;6.03;;;;;;;;;;10096833;28;20081;-63
2023/05/29 09:56:24;;;;;;;12.02;5.80;;;;;;;;;;10097808;28;20544;-63
2023/05/29 10:01:24;;;;;;;7.03;6.18;;;;;;;;;;10096577;28;20073;-63
2023/05/29 10:06:22;;;;;;;9.77;4.85;;;;;;;;;;10096378;28;20564;-63
2023/05/29 10:11:24;;;;;;;8.10;5.75;;;;;;;;;;10096550;28;20070;-63
2023/05/29 10:16:25;;;;;;;7.40;5.50;;;;;;;;;;10096458;28;20070;-63
2023/05/29 10:21:25;;;;;;;6.43;5.82;;;;;;;;;;10096935;28;20081;-63
2023/05/29 10:26:26;;;;;;;10.82;6.07;;;;;;;;;;10096058;28;20087;-63
2023/05/29 10:31:30;;;;;;;6.80;6.05;;;;;;;;;;10096047;28;20066;-64
2023/05/29 10:36:31;;;;;;;6.78;5.97;;;;;;;;;;10093887;28;20078;-63
2023/05/29 10:41:31;;;;;;;5.63;4.75;;;;;;;;;;10096989;28;20086;-64
2023/05/29 10:46:48;;;;;;;6.90;5.95;;;;;;;;;;10103589;28;20078;-63
2023/05/29 10:51:49;;;;;;;9.20;5.53;;;;;;;;;;10103019;28;20082;-63
2023/05/29 10:56:52;;;;;;;13.90;6.38;;;;;;;;;;10102863;28;20074;-63
2023/05/29 11:01:52;;;;;;;7.68;5.82;;;;;;;;;;10102830;28;20085;-63
2023/05/29 11:06:52;;;;;;;6.07;5.47;;;;;;;;;;10102954;28;20078;-63
2023/05/29 11:12:10;;;;;;;8.35;6.32;;;;;;;;;;10103862;28;20460;-63
2023/05/29 11:17:08;;;;;;;7.88;5.75;;;;;;;;;;10102027;28;20468;-63
2023/05/29 11:22:11;;;;;;;9.25;5.85;;;;;;;;;;10102416;28;20090;-62
2023/05/29 11:27:10;;;;;;;6.43;5.67;;;;;;;;;;10104200;28;20097;-63
2023/05/29 11:32:11;;;;;;;9.00;5.60;;;;;;;;;;10101086;28;20088;-62
2023/05/29 11:37:12;;;;;;;9.45;6.72;;;;;;;;;;10102371;28;20082;-63
2023/05/29 11:42:10;;;;;;;9.73;5.60;;;;;;;;;;10102390;28;20082;-63
2023/05/29 11:47:09;;;;;;;5.63;4.75;;;;;;;;;;10102395;28;20074;-63
2023/05/29 11:52:08;;;;;;;9.88;8.88;;;;;;;;;;10101365;28;20074;-62
2023/05/29 11:57:19;;;;;;;7.13;6.13;;;;;;;;;;10100881;28;20070;-62
2023/05/29 12:02:19;;;;;;;6.57;5.60;;;;;;;;;;10102344;28;20086;-62
2023/05/29 12:07:18;;;;;;;10.00;5.70;;;;;;;;;;10102582;28;20074;-62
2023/05/29 12:12:16;;;;;;;6.90;5.20;;;;;;;;;;10100955;28;20080;-62
2023/05/29 12:17:15;;;;;;;11.40;6.10;;;;;;;;;;10100587;28;20078;-63
2023/05/29 12:22:14;;;;;;;10.60;5.13;;;;;;;;;;10099480;28;20071;-63
2023/05/29 12:27:12;;;;;;;6.93;5.05;;;;;;;;;;10101131;28;20088;-62
2023/05/29 12:32:10;;;;;;;11.43;5.28;;;;;;;;;;10099801;28;20067;-62
2023/05/29 12:37:13;;;;;;;13.65;5.85;;;;;;;;;;10099931;28;20540;-62
2023/05/29 12:42:13;;;;;;;6.78;5.97;;;;;;;;;;10100824;28;20600;-62
2023/05/29 12:47:16;;;;;;;10.70;5.93;;;;;;;;;;10099671;28;20081;-62
2023/05/29 12:52:16;;;;;;;6.78;6.25;;;;;;;;;;10100247;28;20082;-62
2023/05/29 12:57:14;;;;;;;9.07;6.07;;;;;;;;;;10098563;28;20114;-62
2023/05/29 13:02:12;;;;;;;9.05;8.13;;;;;;;;;;10098663;28;20086;-62
2023/05/29 13:07:11;;;;;;;6.43;5.85;;;;;;;;;;10099220;28;20082;-62
2023/05/29 13:12:10;;;;;;;8.93;7.03;;;;;;;;;;10096488;28;20133;-62
2023/05/29 13:17:09;;;;;;;8.13;7.25;;;;;;;;;;10099077;28;20073;-62
2023/05/29 13:22:07;;;;;;;6.93;5.90;;;;;;;;;;10097678;28;20105;-61
2023/05/29 13:27:06;;;;;;;10.70;8.30;;;;;;;;;;10094344;28;20043;-62
2023/05/29 13:32:06;;;;;;;10.93;6.07;;;;;;;;;;10097012;28;20090;-62
2023/05/29 13:37:05;;;;;;;5.55;5.13;;;;;;;;;;10097744;28;20083;-61
2023/05/29 13:42:03;;;;;;;8.90;5.82;;;;;;;;;;10097912;28;20082;-62
2023/05/29 13:47:02;;;;;;;9.18;6.15;;;;;;;;;;10097692;28;20085;-62
2023/05/29 13:52:01;;;;;;;15.80;8.60;;;;;;;;;;10097489;28;20098;-62
2023/05/29 13:57:00;;;;;;;16.35;8.30;;;;;;;;;;10090825;28;20077;-62
2023/05/29 14:02:00;;;;;;;11.73;7.53;;;;;;;;;;10097047;28;20117;-62
2023/05/29 14:06:59;;;;;;;12.30;7.88;;;;;;;;;;10096629;28;20075;-62
2023/05/29 14:11:59;;;;;;;10.85;8.40;;;;;;;;;;10096120;28;20719;-62
2023/05/29 14:16:57;;;;;;;10.88;8.52;;;;;;;;;;10095344;28;20078;-62
2023/05/29 14:21:59;;;;;;;12.82;11.73;;;;;;;;;;10096906;28;20102;-62
2023/05/29 14:26:59;;;;;;;12.02;8.43;;;;;;;;;;10093341;28;20461;-62
2023/05/29 14:31:57;;;;;;;8.48;7.38;;;;;;;;;;10100440;28;20062;-62
2023/05/29 14:36:55;;;;;;;11.00;7.28;;;;;;;;;;10096980;28;20527;-62
2023/05/29 14:41:53;;;;;;;7.95;7.25;;;;;;;;;;10102718;28;20101;-61
2023/05/29 14:46:53;;;;;;;7.13;6.43;;;;;;;;;;10103414;28;20512;-62
2023/05/29 14:51:51;;;;;;;10.88;7.80;;;;;;;;;;10097188;28;20071;-63
2023/05/29 14:56:50;;;;;;;8.55;6.18;;;;;;;;;;10100911;28;20145;-63
2023/05/29 15:01:48;;;;;;;6.65;6.03;;;;;;;;;;10096257;28;20062;-63
2023/05/29 15:06:47;;;;;;;8.48;6.22;;;;;;;;;;10103051;28;21022;-63
2023/05/29 15:11:59;;;;;;;6.45;5.82;;;;;;;;;;10092256;28;20085;-62
2023/05/29 15:16:57;;;;;;;7.38;6.68;;;;;;;;;;10090837;28;20059;-63
2023/05/29 15:21:57;;;;;;;10.38;7.10;;;;;;;;;;10097960;28;20077;-63
2023/05/29 15:26:55;;;;;;;7.18;6.47;;;;;;;;;;10101164;28;20515;-63
2023/05/29 15:31:57;;;;;;;11.85;7.45;;;;;;;;;;10107948;28;20081;-63
2023/05/29 15:36:56;;;;;;;7.05;6.35;;;;;;;;;;10103905;28;20074;-62
2023/05/29 15:41:55;;;;;;;9.48;7.43;;;;;;;;;;10109326;28;20459;-63
2023/05/29 15:46:53;;;;;;;6.97;5.75;;;;;;;;;;10101807;28;20146;-63
2023/05/29 15:51:54;;;;;;;7.15;6.22;;;;;;;;;;10103132;28;20071;-62
2023/05/29 15:56:54;;;;;;;6.60;5.90;;;;;;;;;;10100823;28;20066;-63
2023/05/29 16:01:52;;;;;;;6.20;5.70;;;;;;;;;;10100526;28;20078;-63
2023/05/29 16:06:50;;;;;;;10.80;7.97;;;;;;;;;;10102781;28;20070;-63
2023/05/29 16:11:51;;;;;;;7.95;6.88;;;;;;;;;;10101968;28;20476;-63
2023/05/29 16:16:51;;;;;;;6.60;5.95;;;;;;;;;;10101103;28;20528;-64
2023/05/29 16:21:49;;;;;;;9.75;6.25;;;;;;;;;;10104359;28;20085;-64
2023/05/29 16:26:47;;;;;;;6.72;6.13;;;;;;;;;;10101845;28;20097;-63
2023/05/29 16:31:46;;;;;;;6.70;5.72;;;;;;;;;;10101426;28;20085;-63
2023/05/29 16:36:45;;;;;;;8.48;6.35;;;;;;;;;;10106006;28;20066;-63
2023/05/29 16:41:44;;;;;;;9.70;6.38;;;;;;;;;;10101792;28;20066;-63
2023/05/29 16:46:42;;;;;;;12.50;9.52;;;;;;;;;;10101580;28;20079;-63
2023/05/29 16:51:41;;;;;;;11.20;9.93;;;;;;;;;;10097527;28;20101;-63
2023/05/29 16:56:40;;;;;;;7.93;7.13;;;;;;;;;;10099754;28;20093;-63
2023/05/29 17:01:38;;;;;;;10.35;6.88;;;;;;;;;;10107992;28;20081;-63
2023/05/29 17:06:37;;;;;;;10.88;6.88;;;;;;;;;;10108862;28;20352;-63
2023/05/29 17:11:35;;;;;;;9.57;7.43;;;;;;;;;;10111248;28;20073;-63
2023/05/29 17:16:35;;;;;;;10.48;6.90;;;;;;;;;;10109884;28;20082;-63
2023/05/29 17:21:33;;;;;;;9.18;6.95;;;;;;;;;;10108612;28;20074;-63
2023/05/29 17:26:31;;;;;;;8.45;5.80;;;;;;;;;;10109412;28;20159;-63
2023/05/29 17:31:29;;;;;;;7.55;6.53;;;;;;;;;;10109857;28;20105;-63
2023/05/29 17:36:30;;;;;;;9.77;6.88;;;;;;;;;;10109390;28;20496;-64
2023/05/29 17:41:28;;;;;;;9.75;6.00;;;;;;;;;;10107538;28;20066;-62
2023/05/29 17:46:26;;;;;;;6.47;5.15;;;;;;;;;;10110464;28;20067;-63
2023/05/29 17:51:24;;;;;;;7.63;5.47;;;;;;;;;;10104401;28;20070;-63
2023/05/29 17:56:25;;;;;;;8.43;4.50;;;;;;;;;;10107594;28;20066;-63
2023/05/29 18:01:24;;;;;;;6.40;5.03;;;;;;;;;;10108350;28;20074;-63
2023/05/29 18:06:22;;;;;;;6.68;4.93;;;;;;;;;;10111099;28;20585;-63
2023/05/29 18:11:21;;;;;;;6.85;4.72;;;;;;;;;;10111299;28;20461;-63
2023/05/29 18:16:21;;;;;;;5.57;5.07;;;;;;;;;;10103839;28;20074;-63
2023/05/29 18:21:22;;;;;;;8.52;5.05;;;;;;;;;;10099464;28;20067;-63
2023/05/29 18:26:21;;;;;;;6.07;4.72;;;;;;;;;;10102185;28;20082;-62
2023/05/29 18:31:21;;;;;;;5.05;4.50;;;;;;;;;;10092235;28;20074;-63
2023/05/29 18:36:19;;;;;;;6.25;4.90;;;;;;;;;;10099238;28;20074;-63
2023/05/29 18:41:18;;;;;;;6.05;5.40;;;;;;;;;;10107364;28;20081;-63
2023/05/29 18:46:16;;;;;;;6.03;5.45;;;;;;;;;;10099409;28;20146;-63
2023/05/29 18:51:16;;;;;;;8.25;6.05;;;;;;;;;;10106594;28;20070;-63
2023/05/29 18:56:14;;;;;;;6.30;5.47;;;;;;;;;;10104752;28;20069;-63
2023/05/29 19:01:12;;;;;;;5.18;4.72;;;;;;;;;;10103564;28;20063;-63
2023/05/29 19:06:29;;;;;;;7.57;5.72;;;;;;;;;;10108548;28;20133;-62
2023/05/29 19:11:28;;;;;;;8.63;5.45;;;;;;;;;;10110538;28;20082;-63
2023/05/29 19:16:26;;;;;;;6.22;5.25;;;;;;;;;;10113979;28;20070;-63
2023/05/29 19:21:24;;;;;;;7.85;5.93;;;;;;;;;;10112996;28;20078;-63
2023/05/29 19:26:24;;;;;;;12.25;6.55;;;;;;;;;;10113698;28;20551;-63
2023/05/29 19:31:25;;;;;;;9.27;6.70;;;;;;;;;;10109645;28;20081;-63
2023/05/29 19:36:24;;;;;;;8.38;6.38;;;;;;;;;;10112415;28;20071;-63
2023/05/29 19:41:24;;;;;;;9.02;5.90;;;;;;;;;;10114763;28;20062;-63
2023/05/29 19:46:24;;;;;;;7.57;5.93;;;;;;;;;;10111561;28;20074;-62
2023/05/29 19:51:23;;;;;;;10.75;6.65;;;;;;;;;;10115271;28;20515;-62
2023/05/29 19:56:22;;;;;;;10.32;6.18;;;;;;;;;;10113102;28;20519;-62
2023/05/29 20:01:21;;;;;;;10.18;6.47;;;;;;;;;;10109325;28;20070;-63
2023/05/29 20:06:20;;;;;;;8.05;6.82;;;;;;;;;;10106541;28;20484;-62
2023/05/29 20:11:18;;;;;;;8.07;5.90;;;;;;;;;;10106388;28;20501;-62
2023/05/29 20:16:16;;;;;;;8.88;6.72;;;;;;;;;;10101749;28;20081;-62
2023/05/29 20:21:16;;;;;;;10.40;7.00;;;;;;;;;;10103579;28;20071;-62
2023/05/29 20:26:14;;;;;;;8.60;7.15;;;;;;;;;;10099049;28;20109;-62
2023/05/29 20:31:12;;;;;;;7.60;6.60;;;;;;;;;;10104312;28;20070;-62
2023/05/29 20:36:10;;;;;;;7.07;6.45;;;;;;;;;;10101905;28;20535;-63
2023/05/29 20:41:11;;;;;;;8.73;7.82;;;;;;;;;;10108578;28;20067;-64
2023/05/29 20:46:09;;;;;;;11.88;7.50;;;;;;;;;;10101003;28;20074;-63
2023/05/29 20:51:08;;;;;;;9.02;8.13;;;;;;;;;;10102091;28;20063;-63
2023/05/29 20:56:06;;;;;;;16.63;11.38;;;;;;;;;;10101379;28;20062;-62
2023/05/29 21:01:06;;;;;;;8.63;7.38;;;;;;;;;;10099854;28;20086;-62
2023/05/29 21:06:06;;;;;;;9.27;8.07;;;;;;;;;;10102285;28;20093;-61
2023/05/29 21:11:05;;;;;;;12.80;7.90;;;;;;;;;;10101981;28;20071;-62
2023/05/29 21:16:05;;;;;;;8.77;7.88;;;;;;;;;;10101576;28;20482;-61
2023/05/29 21:21:05;;;;;;;9.70;8.27;;;;;;;;;;10097824;28;20468;-62
2023/05/29 21:26:04;;;;;;;7.80;7.10;;;;;;;;;;10102761;28;20109;-62
2023/05/29 21:31:03;;;;;;;14.57;9.13;;;;;;;;;;10098857;28;20077;-62
2023/05/29 21:36:05;;;;;;;9.77;7.30;;;;;;;;;;10100000;28;20063;-62
2023/05/29 21:41:05;;;;;;;13.25;7.32;;;;;;;;;;10102456;28;20138;-62
2023/05/29 21:46:04;;;;;;;12.15;7.40;;;;;;;;;;10099187;28;20465;-63
2023/05/29 21:51:02;;;;;;;11.77;7.50;;;;;;;;;;10098475;28;20062;-63
2023/05/29 21:56:02;;;;;;;11.07;7.35;;;;;;;;;;10100322;28;20058;-62
2023/05/29 22:01:00;;;;;;;8.88;7.25;;;;;;;;;;10100538;28;20075;-62
2023/05/29 22:05:59;;;;;;;17.55;7.90;;;;;;;;;;10097717;28;20086;-63
2023/05/29 22:10:57;;;;;;;10.45;7.80;;;;;;;;;;10099366;28;20078;-62
2023/05/29 22:15:57;;;;;;;10.98;7.93;;;;;;;;;;10099064;28;20807;-62
2023/05/29 22:20:55;;;;;;;9.45;8.02;;;;;;;;;;10097975;28;20070;-62
2023/05/29 22:25:56;;;;;;;16.23;8.25;;;;;;;;;;10096874;28;20094;-62
2023/05/29 22:30:54;;;;;;;10.68;8.32;;;;;;;;;;10100654;28;20079;-62
2023/05/29 22:35:54;;;;;;;10.70;7.70;;;;;;;;;;10099574;28;20066;-62
2023/05/29 22:40:53;;;;;;;12.77;8.60;;;;;;;;;;10098253;28;20493;-63
2023/05/29 22:46:07;;;;;;;10.43;8.05;;;;;;;;;;10097648;28;20087;-63
2023/05/29 22:51:34;;;;;;;9.27;8.38;;;;;;;;;;10098229;28;20081;-64
2023/05/29 22:56:33;;;;;;;13.40;9.18;;;;;;;;;;10097874;28;20074;-64
2023/05/29 23:01:32;;;;;;;11.63;7.95;;;;;;;;;;10095184;28;20496;-64
2023/05/29 23:06:33;;;;;;;11.45;8.05;;;;;;;;;;10099171;28;20090;-64
2023/05/29 23:11:33;;;;;;;10.05;7.88;;;;;;;;;;10100105;28;20139;-63
2023/05/29 23:16:31;;;;;;;10.63;8.60;;;;;;;;;;10101343;28;20084;-62
2023/05/29 23:21:30;;;;;;;9.05;8.18;;;;;;;;;;10099172;28;20472;-62
2023/05/29 23:26:28;;;;;;;16.40;9.18;;;;;;;;;;10095530;28;20090;-63
2023/05/29 23:31:28;;;;;;;10.13;8.70;;;;;;;;;;10099621;28;20290;-61
2023/05/29 23:36:26;;;;;;;12.52;8.57;;;;;;;;;;10097093;28;20079;-61
2023/05/29 23:41:25;;;;;;;12.65;8.15;;;;;;;;;;10103476;28;20062;-60
2023/05/29 23:46:23;;;;;;;11.90;8.93;;;;;;;;;;10095557;28;20071;-61
2023/05/29 23:51:22;;;;;;;12.48;9.70;;;;;;;;;;10102210;28;20066;-62
2023/05/29 23:56:21;;;;;;;17.63;8.75;;;;;;;;;;10105619;28;20484;-62
